CLIMA

Resumen Mensual Abril 2021

Fecha Temp. Max Temp. Min Humedad Precip. Pto. Rocio Max Pto. Rocio Min Viento Rafaga de Viento
2021-04-01 25.3 °C 9.6 °C 98 % 0.3 mm 17.7 °C 9.3 °C 12.2 Km/h 18.4 Km/h
2021-04-02 25.8 °C 11.7 °C 99 % - 18.4 °C 11.3 °C 15.8 Km/h 22 Km/h
2021-04-03 26.6 °C 12.5 °C 98 % - 19.4 °C 12 °C 12.2 Km/h 20.9 Km/h
2021-04-04 27 °C 13.4 °C 99 % - 20 °C 13.1 °C 13.3 Km/h 18.4 Km/h
2021-04-05 29.2 °C 14.8 °C 99 % - 21.7 °C 14.5 °C 11.2 Km/h 17.3 Km/h
2021-04-06 29.7 °C 15.7 °C 99 % - 23.1 °C 15.5 °C 15.8 Km/h 29.5 Km/h
2021-04-07 30 °C 18.1 °C 98 % - 22.7 °C 17.6 °C 14.8 Km/h 24.5 Km/h
2021-04-08 27.5 °C 18 °C 98 % 23.7 mm 20.8 °C 17.2 °C 20.9 Km/h 33.1 Km/h
2021-04-09 22.6 °C 16.3 °C 99 % 0.3 mm 20 °C 16 °C 11.2 Km/h 17.3 Km/h
2021-04-10 21.2 °C 15.5 °C 99 % 13.5 mm 19.8 °C 15 °C 19.4 Km/h 33.1 Km/h
2021-04-11 22 °C 11.8 °C 99 % 16.5 mm 20.1 °C 10.8 °C 31.7 Km/h 46.4 Km/h
2021-04-12 25.8 °C 9.1 °C 97 % - 15.2 °C 8.5 °C 14.8 Km/h 25.6 Km/h
2021-04-13 26.9 °C 11.6 °C 94 % - 16.9 °C 9.2 °C 9.7 Km/h 17.3 Km/h
2021-04-14 24.1 °C 9.1 °C 98 % - 17.2 °C 8.6 °C 14.8 Km/h 25.6 Km/h
2021-04-15 27.5 °C 9.1 °C 99 % - 18.7 °C 9 °C 7.2 Km/h 11.2 Km/h
2021-04-16 28.8 °C 9.8 °C 99 % - 19.1 °C 9.7 °C 7.2 Km/h 11.2 Km/h
2021-04-17 26 °C 10.5 °C 99 % - 20.1 °C 10.2 °C 11.2 Km/h 22 Km/h
2021-04-18 24.5 °C 14.8 °C 99 % 0.3 mm 20.3 °C 14.6 °C 13.3 Km/h 24.5 Km/h
2021-04-19 25.6 °C 11.8 °C 99 % 0.3 mm 17.8 °C 11.6 °C 20.9 Km/h 39.2 Km/h
2021-04-20 24.9 °C 14.1 °C 98 % 0.3 mm 18.5 °C 13.6 °C 20.9 Km/h 35.6 Km/h